Date,TemperatureHighF,TemperatureAvgF,TemperatureLowF,DewpointHighF,DewpointAvgF,DewpointLowF,HumidityHigh,HumidityAvg,HumidityLow,PressureMaxIn,PressureMinIn,WindSpeedMaxMPH,WindSpeedAvgMPH,GustSpeedMaxMPH,PrecipitationSumIn
2013-1-1,53.1,37.4,29.8,32.5,27.7,22.1,90,70,40,30.33,30.19,4,0,6,0.00
2013-1-2,61.7,40.5,31.8,35.5,24.4,11.8,83,57,16,30.31,30.10,4,0,4,0.00
2013-1-3,61.2,40.5,31.5,35.3,29.0,17.7,82,65,31,30.32,30.15,4,0,6,89.19
2013-1-4,61.2,42.9,34.7,35.6,29.5,23.5,84,62,30,30.34,30.15,4,0,4,0.00
2013-1-5,60.3,42.7,36.5,39.1,33.4,20.3,88,73,27,30.30,30.12,4,0,6,0.00
2013-1-6,52.9,39.8,34.5,43.4,37.6,33.5,99,92,61,30.22,30.08,3,0,4,0.05
2013-1-7,59.5,42.7,33.8,41.4,35.6,29.9,96,77,37,30.24,30.13,3,0,4,0.01
2013-1-8,63.7,43.7,34.7,46.5,38.8,33.4,99,85,50,30.28,30.10,3,0,6,0.00
2013-1-9,50.9,43.0,31.8,41.5,37.8,30.7,99,83,57,30.22,29.91,8,1,14,0.43
2013-1-10,46.2,33.3,27.9,42.1,29.3,24.5,98,86,60,30.20,30.03,4,0,6,0.00
2013-1-11,44.4,31.7,25.3,33.3,23.5,-8.0,93,75,15,30.31,30.11,46,2,46,0.01
2013-1-13,28.2,28.0,27.7,3.6,2.3,0.8,35,32,30,30.26,30.25,1,0,2,0.50
2013-1-14,53.4,34.4,25.7,19.4,8.0,-1.4,61,36,14,30.44,30.26,4,1,5,0.00
2013-1-15,53.8,36.0,27.3,29.3,21.8,15.8,75,58,27,30.55,30.37,4,0,4,0.00
2013-1-16,65.1,43.5,33.8,30.8,22.4,10.0,72,48,13,30.49,30.24,4,1,5,0.00
2013-1-17,70.9,53.1,41.0,35.1,25.0,6.1,64,41,10,30.27,30.09,4,1,4,0.00
2013-1-18,72.7,49.4,38.8,33.4,24.2,6.4,65,43,10,30.29,30.07,4,1,5,0.00
2013-1-19,73.6,49.3,38.1,34.3,25.4,10.1,62,45,10,30.32,30.11,4,1,5,0.00
2013-1-20,69.1,48.6,39.2,33.8,24.5,5.8,75,45,10,30.30,30.07,4,1,5,0.00
2013-1-21,71.8,49.7,39.4,33.4,24.1,10.0,73,42,10,30.25,30.07,4,1,6,0.00
2013-1-22,74.3,51.4,39.7,36.3,24.0,9.4,63,40,10,30.21,29.96,4,1,6,0.00
2013-1-23,64.4,52.5,46.8,47.0,26.9,9.7,99,46,12,30.14,29.99,4,0,6,0.05
2013-1-24,57.9,51.5,47.5,50.6,47.7,44.2,99,87,71,30.21,30.09,3,0,4,0.04
2013-1-25,67.3,53.5,49.1,61.5,51.3,48.8,99,93,65,30.21,30.03,3,0,4,0.13
2013-1-26,51.1,46.3,37.4,50.8,44.8,-17.0,99,95,5,30.07,29.94,4,0,6,89.91
2013-1-27,52.2,38.5,31.8,41.4,35.2,29.9,99,89,54,30.19,30.04,4,0,5,0.09
2013-1-28,55.8,39.6,30.7,33.6,29.8,24.7,93,70,36,30.32,30.12,4,0,7,0.00
2013-1-29,53.4,38.9,33.4,37.2,32.1,29.8,90,78,49,30.36,30.28,2,0,4,0.00